sensor_id;sensor_type;location;lat;lon;timestamp;pressure;altitude;pressure_sealevel;temperature;humidity
22047;BME280;11187;49.412;20.956;2023-04-04T00:00:21;95313.56;;;-1.73;95.99
22047;BME280;11187;49.412;20.956;2023-04-04T00:02:54;95319.28;;;-1.77;95.69
22047;BME280;11187;49.412;20.956;2023-04-04T00:05:41;95315.19;;;-1.75;96.65
22047;BME280;11187;49.412;20.956;2023-04-04T00:08:14;95315.25;;;-1.74;96.76
22047;BME280;11187;49.412;20.956;2023-04-04T00:11:01;95319.34;;;-1.76;96.72
22047;BME280;11187;49.412;20.956;2023-04-04T00:13:34;95327.78;;;-1.74;96.96
22047;BME280;11187;49.412;20.956;2023-04-04T00:16:29;95329.41;;;-1.76;96.60
22047;BME280;11187;49.412;20.956;2023-04-04T00:19:23;95331.81;;;-1.79;96.51
22047;BME280;11187;49.412;20.956;2023-04-04T00:21:56;95336.78;;;-1.80;96.03
22047;BME280;11187;49.412;20.956;2023-04-04T00:24:50;95342.56;;;-1.83;95.66
22047;BME280;11187;49.412;20.956;2023-04-04T00:27:44;95343.41;;;-1.82;96.78
22047;BME280;11187;49.412;20.956;2023-04-04T00:30:17;95343.47;;;-1.81;96.56
22047;BME280;11187;49.412;20.956;2023-04-04T00:33:04;95339.28;;;-1.80;97.12
22047;BME280;11187;49.412;20.956;2023-04-04T00:35:38;95351.78;;;-1.82;96.71
22047;BME280;11187;49.412;20.956;2023-04-04T00:38:25;95330.06;;;-1.81;96.91
22047;BME280;11187;49.412;20.956;2023-04-04T00:40:59;95334.25;;;-1.80;97.28
22047;BME280;11187;49.412;20.956;2023-04-04T00:43:46;95337.59;;;-1.81;96.77
22047;BME280;11187;49.412;20.956;2023-04-04T00:46:19;95341.78;;;-1.80;96.67
22047;BME280;11187;49.412;20.956;2023-04-04T00:49:06;95341.00;;;-1.79;97.00
22047;BME280;11187;49.412;20.956;2023-04-04T00:51:39;95339.28;;;-1.80;96.75
22047;BME280;11187;49.412;20.956;2023-04-04T00:54:26;95340.03;;;-1.83;96.72
22047;BME280;11187;49.412;20.956;2023-04-04T00:57:20;95329.16;;;-1.83;96.44
22047;BME280;11187;49.412;20.956;2023-04-04T00:59:56;95344.16;;;-1.85;96.68
22047;BME280;11187;49.412;20.956;2023-04-04T01:02:53;95334.94;;;-1.86;96.66
22047;BME280;11187;49.412;20.956;2023-04-04T01:05:47;95329.03;;;-1.86;96.72
22047;BME280;11187;49.412;20.956;2023-04-04T01:08:23;95333.16;;;-1.89;97.11
22047;BME280;11187;49.412;20.956;2023-04-04T01:11:11;95333.22;;;-1.87;98.08
22047;BME280;11187;49.412;20.956;2023-04-04T01:13:45;95319.00;;;-1.86;97.92
22047;BME280;11187;49.412;20.956;2023-04-04T01:16:33;95315.56;;;-1.90;97.67
22047;BME280;11187;49.412;20.956;2023-04-04T01:19:10;95322.25;;;-1.91;97.20
22047;BME280;11187;49.412;20.956;2023-04-04T01:22:00;95314.72;;;-1.91;97.82
22047;BME280;11187;49.412;20.956;2023-04-04T01:24:34;95317.25;;;-1.89;98.27
22047;BME280;11187;49.412;20.956;2023-04-04T01:27:22;95310.47;;;-1.92;98.15
22047;BME280;11187;49.412;20.956;2023-04-04T01:29:55;95319.63;;;-1.94;98.57
22047;BME280;11187;49.412;20.956;2023-04-04T01:32:52;95313.75;;;-1.94;98.72
22047;BME280;11187;49.412;20.956;2023-04-04T01:35:42;95322.13;;;-1.94;99.01
22047;BME280;11187;49.412;20.956;2023-04-04T01:38:41;95321.34;;;-1.93;98.64
22047;BME280;11187;49.412;20.956;2023-04-04T01:41:16;95321.28;;;-1.94;98.85
22047;BME280;11187;49.412;20.956;2023-04-04T01:44:04;95317.81;;;-1.98;98.32
22047;BME280;11187;49.412;20.956;2023-04-04T01:46:37;95315.16;;;-2.02;98.14
22047;BME280;11187;49.412;20.956;2023-04-04T01:49:24;95314.41;;;-2.00;98.68
22047;BME280;11187;49.412;20.956;2023-04-04T01:51:57;95308.59;;;-1.99;98.92
22047;BME280;11187;49.412;20.956;2023-04-04T01:54:46;95312.78;;;-1.98;99.15
22047;BME280;11187;49.412;20.956;2023-04-04T01:57:40;95314.41;;;-2.00;99.56
22047;BME280;11187;49.412;20.956;2023-04-04T02:00:13;95311.03;;;-2.00;99.42
22047;BME280;11187;49.412;20.956;2023-04-04T02:03:07;95312.53;;;-2.05;98.73
22047;BME280;11187;49.412;20.956;2023-04-04T02:06:01;95307.44;;;-2.08;99.25
22047;BME280;11187;49.412;20.956;2023-04-04T02:08:34;95310.88;;;-2.05;99.75
22047;BME280;11187;49.412;20.956;2023-04-04T02:11:24;95324.34;;;-2.03;99.79
22047;BME280;11187;49.412;20.956;2023-04-04T02:13:57;95328.59;;;-2.00;100.00
22047;BME280;11187;49.412;20.956;2023-04-04T02:16:44;95325.25;;;-2.01;99.91
22047;BME280;11187;49.412;20.956;2023-04-04T02:19:17;95321.72;;;-2.06;99.03
22047;BME280;11187;49.412;20.956;2023-04-04T02:22:11;95308.28;;;-2.08;99.26
22047;BME280;11187;49.412;20.956;2023-04-04T02:24:44;95311.50;;;-2.12;99.30
22047;BME280;11187;49.412;20.956;2023-04-04T02:27:32;95311.63;;;-2.07;100.00
22047;BME280;11187;49.412;20.956;2023-04-04T02:30:06;95313.31;;;-2.08;99.41
22047;BME280;11187;49.412;20.956;2023-04-04T02:33:00;95304.06;;;-2.09;99.82
22047;BME280;11187;49.412;20.956;2023-04-04T02:35:58;95307.44;;;-2.08;99.55
22047;BME280;11187;49.412;20.956;2023-04-04T02:38:31;95298.31;;;-2.06;99.99
22047;BME280;11187;49.412;20.956;2023-04-04T02:41:18;95306.63;;;-2.07;99.73
22047;BME280;11187;49.412;20.956;2023-04-04T02:43:51;95303.97;;;-2.12;99.33
22047;BME280;11187;49.412;20.956;2023-04-04T02:46:45;95299.75;;;-2.13;99.71
22047;BME280;11187;49.412;20.956;2023-04-04T02:49:18;95300.53;;;-2.16;99.74
22047;BME280;11187;49.412;20.956;2023-04-04T02:52:06;95290.38;;;-2.19;100.00
22047;BME280;11187;49.412;20.956;2023-04-04T02:54:40;95291.22;;;-2.18;99.67
22047;BME280;11187;49.412;20.956;2023-04-04T02:57:27;95287.91;;;-2.17;99.81
22047;BME280;11187;49.412;20.956;2023-04-04T03:00:00;95285.34;;;-2.19;99.87
22047;BME280;11187;49.412;20.956;2023-04-04T03:02:54;95274.47;;;-2.19;100.00
22047;BME280;11187;49.412;20.956;2023-04-04T03:05:29;95268.59;;;-2.20;100.00
22047;BME280;11187;49.412;20.956;2023-04-04T03:08:24;95260.19;;;-2.22;99.85
22047;BME280;11187;49.412;20.956;2023-04-04T03:11:18;95268.47;;;-2.24;100.00
22047;BME280;11187;49.412;20.956;2023-04-04T03:13:55;95261.72;;;-2.25;100.00
22047;BME280;11187;49.412;20.956;2023-04-04T03:16:49;95246.75;;;-2.24;100.00
22047;BME280;11187;49.412;20.956;2023-04-04T03:19:43;95251.69;;;-2.25;100.00
22047;BME280;11187;49.412;20.956;2023-04-04T03:22:37;95256.72;;;-2.25;100.00
22047;BME280;11187;49.412;20.956;2023-04-04T03:25:31;95250.00;;;-2.26;100.00
22047;BME280;11187;49.412;20.956;2023-04-04T03:28:25;95252.53;;;-2.25;100.00
22047;BME280;11187;49.412;20.956;2023-04-04T03:31:19;95249.03;;;-2.30;100.00
22047;BME280;11187;49.412;20.956;2023-04-04T03:33:52;95242.22;;;-2.34;100.00
22047;BME280;11187;49.412;20.956;2023-04-04T03:36:39;95245.69;;;-2.31;100.00
22047;BME280;11187;49.412;20.956;2023-04-04T03:39:12;95241.47;;;-2.32;100.00
22047;BME280;11187;49.412;20.956;2023-04-04T03:42:06;95248.84;;;-2.36;100.00
22047;BME280;11187;49.412;20.956;2023-04-04T03:44:40;95249.56;;;-2.40;100.00
22047;BME280;11187;49.412;20.956;2023-04-04T03:47:27;95245.47;;;-2.37;100.00
22047;BME280;11187;49.412;20.956;2023-04-04T03:50:00;95246.38;;;-2.35;100.00
22047;BME280;11187;49.412;20.956;2023-04-04T03:52:47;95245.47;;;-2.37;100.00
22047;BME280;11187;49.412;20.956;2023-04-04T03:55:20;95249.69;;;-2.36;100.00
22047;BME280;11187;49.412;20.956;2023-04-04T03:58:14;95246.91;;;-2.43;100.00
22047;BME280;11187;49.412;20.956;2023-04-04T04:00:47;95250.16;;;-2.47;100.00
22047;BME280;11187;49.412;20.956;2023-04-04T04:03:41;95250.88;;;-2.50;100.00
22047;BME280;11187;49.412;20.956;2023-04-04T04:06:14;95250.03;;;-2.50;100.00
22047;BME280;11187;49.412;20.956;2023-04-04T04:09:01;95245.88;;;-2.50;100.00
22047;BME280;11187;49.412;20.956;2023-04-04T04:11:35;95249.25;;;-2.49;100.00
22047;BME280;11187;49.412;20.956;2023-04-04T04:14:22;95248.34;;;-2.52;100.00
22047;BME280;11187;49.412;20.956;2023-04-04T04:16:55;95241.44;;;-2.57;100.00
22047;BME280;11187;49.412;20.956;2023-04-04T04:19:49;95244.72;;;-2.60;100.00
22047;BME280;11187;49.412;20.956;2023-04-04T04:22:22;95247.16;;;-2.61;100.00
22047;BME280;11187;49.412;20.956;2023-04-04T04:25:09;95254.66;;;-2.61;100.00
22047;BME280;11187;49.412;20.956;2023-04-04T04:27:43;95244.72;;;-2.60;100.00
22047;BME280;11187;49.412;20.956;2023-04-04T04:30:30;95245.53;;;-2.61;100.00
22047;BME280;11187;49.412;20.956;2023-04-04T04:33:03;95243.09;;;-2.58;100.00
22047;BME280;11187;49.412;20.956;2023-04-04T04:35:50;95252.31;;;-2.57;100.00
22047;BME280;11187;49.412;20.956;2023-04-04T04:38:27;95259.97;;;-2.54;100.00
22047;BME280;11187;49.412;20.956;2023-04-04T04:41:13;95266.72;;;-2.51;100.00
22047;BME280;11187;49.412;20.956;2023-04-04T04:43:46;95269.25;;;-2.51;100.00
22047;BME280;11187;49.412;20.956;2023-04-04T04:46:33;95276.06;;;-2.47;100.00
22047;BME280;11187;49.412;20.956;2023-04-04T04:49:06;95283.69;;;-2.44;100.00
22047;BME280;11187;49.412;20.956;2023-04-04T04:52:00;95285.28;;;-2.46;100.00
22047;BME280;11187;49.412;20.956;2023-04-04T04:54:34;95283.00;;;-2.40;100.00
22047;BME280;11187;49.412;20.956;2023-04-04T04:57:29;95293.00;;;-2.40;100.00
22047;BME280;11187;49.412;20.956;2023-04-04T05:00:23;95292.25;;;-2.37;100.00
22047;BME280;11187;49.412;20.956;2023-04-04T05:02:57;95295.69;;;-2.35;100.00
22047;BME280;11187;49.412;20.956;2023-04-04T05:05:53;95301.66;;;-2.32;100.00
22047;BME280;11187;49.412;20.956;2023-04-04T05:08:47;95306.88;;;-2.25;100.00
22047;BME280;11187;49.412;20.956;2023-04-04T05:11:20;95310.34;;;-2.22;100.00
22047;BME280;11187;49.412;20.956;2023-04-04T05:14:07;95308.63;;;-2.23;100.00
22047;BME280;11187;49.412;20.956;2023-04-04T05:16:40;95309.38;;;-2.25;100.00
22047;BME280;11187;49.412;20.956;2023-04-04T05:19:34;95304.47;;;-2.22;100.00
22047;BME280;11187;49.412;20.956;2023-04-04T05:22:07;95306.16;;;-2.21;100.00
22047;BME280;11187;49.412;20.956;2023-04-04T05:24:54;95310.28;;;-2.23;100.00
22047;BME280;11187;49.412;20.956;2023-04-04T05:27:27;95305.31;;;-2.22;100.00
22047;BME280;11187;49.412;20.956;2023-04-04T05:30:14;95305.25;;;-2.23;99.84
22047;BME280;11187;49.412;20.956;2023-04-04T05:32:50;95312.72;;;-2.25;100.00
22047;BME280;11187;49.412;20.956;2023-04-04T05:35:37;95307.00;;;-2.21;100.00
22047;BME280;11187;49.412;20.956;2023-04-04T05:38:10;95300.25;;;-2.23;100.00
22047;BME280;11187;49.412;20.956;2023-04-04T05:40:57;95290.16;;;-2.25;100.00
22047;BME280;11187;49.412;20.956;2023-04-04T05:43:30;95294.59;;;-2.18;100.00
22047;BME280;11187;49.412;20.956;2023-04-04T05:46:24;95295.50;;;-2.16;100.00
22047;BME280;11187;49.412;20.956;2023-04-04T05:48:58;95294.06;;;-2.07;100.00
22047;BME280;11187;49.412;20.956;2023-04-04T05:51:51;95297.69;;;-1.99;100.00
22047;BME280;11187;49.412;20.956;2023-04-04T05:54:24;95296.84;;;-2.00;99.49
22047;BME280;11187;49.412;20.956;2023-04-04T05:57:18;95296.19;;;-1.94;100.00
22047;BME280;11187;49.412;20.956;2023-04-04T06:00:12;95297.25;;;-1.87;100.00
22047;BME280;11187;49.412;20.956;2023-04-04T06:02:45;95295.69;;;-1.84;99.53
22047;BME280;11187;49.412;20.956;2023-04-04T06:05:32;95293.31;;;-1.79;100.00
22047;BME280;11187;49.412;20.956;2023-04-04T06:08:05;95294.25;;;-1.76;98.88
22047;BME280;11187;49.412;20.956;2023-04-04T06:10:59;95298.50;;;-1.75;97.94
22047;BME280;11187;49.412;20.956;2023-04-04T06:13:53;95295.38;;;-1.67;98.90
22047;BME280;11187;49.412;20.956;2023-04-04T06:16:26;95290.56;;;-1.60;99.04
22047;BME280;11187;49.412;20.956;2023-04-04T06:19:13;95301.44;;;-1.59;99.14
22047;BME280;11187;49.412;20.956;2023-04-04T06:21:47;95302.63;;;-1.48;99.44
22047;BME280;11187;49.412;20.956;2023-04-04T06:24:34;95301.31;;;-1.37;99.18
22047;BME280;11187;49.412;20.956;2023-04-04T06:27:07;95292.09;;;-1.36;98.45
22047;BME280;11187;49.412;20.956;2023-04-04T06:30:02;95296.41;;;-1.32;98.30
22047;BME280;11187;49.412;20.956;2023-04-04T06:32:56;95305.00;;;-1.26;98.57
22047;BME280;11187;49.412;20.956;2023-04-04T06:35:29;95300.91;;;-1.22;97.66
22047;BME280;11187;49.412;20.956;2023-04-04T06:38:16;95297.59;;;-1.21;98.14
22047;BME280;11187;49.412;20.956;2023-04-04T06:40:49;95302.47;;;-1.26;98.01
22047;BME280;11187;49.412;20.956;2023-04-04T06:43:43;95302.84;;;-1.13;98.92
22047;BME280;11187;49.412;20.956;2023-04-04T06:46:18;95301.66;;;-0.97;98.47
22047;BME280;11187;49.412;20.956;2023-04-04T06:49:06;95302.66;;;-0.91;98.27
22047;BME280;11187;49.412;20.956;2023-04-04T06:51:40;95305.91;;;-0.95;96.29
22047;BME280;11187;49.412;20.956;2023-04-04T06:54:36;95310.34;;;-1.15;96.33
22047;BME280;11187;49.412;20.956;2023-04-04T06:57:30;95305.25;;;-1.18;96.91
22047;BME280;11187;49.412;20.956;2023-04-04T07:00:04;95307.78;;;-1.16;96.92
22047;BME280;11187;49.412;20.956;2023-04-04T07:02:59;95303.00;;;-1.09;97.25
22047;BME280;11187;49.412;20.956;2023-04-04T07:05:53;95307.97;;;-1.10;96.94
22047;BME280;11187;49.412;20.956;2023-04-04T07:08:28;95317.09;;;-1.12;97.02
22047;BME280;11187;49.412;20.956;2023-04-04T07:11:16;95320.59;;;-1.09;97.58
22047;BME280;11187;49.412;20.956;2023-04-04T07:13:49;95324.88;;;-1.05;97.62
22047;BME280;11187;49.412;20.956;2023-04-04T07:16:36;95315.63;;;-1.06;96.88
22047;BME280;11187;49.412;20.956;2023-04-04T07:19:09;95316.47;;;-1.07;96.38
22047;BME280;11187;49.412;20.956;2023-04-04T07:22:03;95315.69;;;-1.04;97.41
22047;BME280;11187;49.412;20.956;2023-04-04T07:24:36;95314.97;;;-1.00;97.37
22047;BME280;11187;49.412;20.956;2023-04-04T07:27:23;95324.88;;;-1.05;96.60
22047;BME280;11187;49.412;20.956;2023-04-04T07:29:56;95313.97;;;-1.05;96.19
22047;BME280;11187;49.412;20.956;2023-04-04T07:32:43;95309.91;;;-1.01;96.50
22047;BME280;11187;49.412;20.956;2023-04-04T07:35:16;95314.34;;;-0.91;97.11
22047;BME280;11187;49.412;20.956;2023-04-04T07:38:04;95314.84;;;-0.74;97.20
22047;BME280;11187;49.412;20.956;2023-04-04T07:40:37;95309.38;;;-0.61;96.86
22047;BME280;11187;49.412;20.956;2023-04-04T07:43:24;95311.22;;;-0.54;94.04
22047;BME280;11187;49.412;20.956;2023-04-04T07:45:57;95325.06;;;-0.38;95.29
22047;BME280;11187;49.412;20.956;2023-04-04T07:48:44;95311.78;;;-0.32;93.41
22047;BME280;11187;49.412;20.956;2023-04-04T07:51:17;95312.44;;;-0.39;93.25
22047;BME280;11187;49.412;20.956;2023-04-04T07:54:08;95305.72;;;-0.40;94.65
22047;BME280;11187;49.412;20.956;2023-04-04T07:56:41;95298.19;;;-0.39;93.80
22047;BME280;11187;49.412;20.956;2023-04-04T07:59:28;95295.41;;;-0.50;92.22
22047;BME280;11187;49.412;20.956;2023-04-04T08:02:01;95295.38;;;-0.51;93.18
22047;BME280;11187;49.412;20.956;2023-04-04T08:04:55;95309.75;;;-0.46;92.97
22047;BME280;11187;49.412;20.956;2023-04-04T08:07:49;95291.28;;;-0.48;92.55
22047;BME280;11187;49.412;20.956;2023-04-04T08:10:22;95297.53;;;-0.33;91.08
22047;BME280;11187;49.412;20.956;2023-04-04T08:13:09;95291.09;;;-0.22;90.46
22047;BME280;11187;49.412;20.956;2023-04-04T08:15:43;95294.28;;;-0.28;87.68
22047;BME280;11187;49.412;20.956;2023-04-04T08:18:36;95287.25;;;-0.08;91.54
22047;BME280;11187;49.412;20.956;2023-04-04T08:21:30;95295.53;;;0.22;90.65
22047;BME280;11187;49.412;20.956;2023-04-04T08:24:24;95291.44;;;0.27;90.72
22047;BME280;11187;49.412;20.956;2023-04-04T08:26:57;95296.03;;;0.43;90.25
22047;BME280;11187;49.412;20.956;2023-04-04T08:29:45;95293.66;;;0.87;90.51
22047;BME280;11187;49.412;20.956;2023-04-04T08:32:19;95286.41;;;1.43;89.58
22047;BME280;11187;49.412;20.956;2023-04-04T08:35:07;95289.75;;;1.42;82.98
22047;BME280;11187;49.412;20.956;2023-04-04T08:37:44;95266.25;;;1.45;82.16
22047;BME280;11187;49.412;20.956;2023-04-04T08:40:31;95265.22;;;1.81;85.04
22047;BME280;11187;49.412;20.956;2023-04-04T08:43:05;95280.25;;;1.75;84.50
22047;BME280;11187;49.412;20.956;2023-04-04T08:45:52;95272.94;;;1.43;82.64
22047;BME280;11187;49.412;20.956;2023-04-04T08:48:26;95281.69;;;1.18;81.65
22047;BME280;11187;49.412;20.956;2023-04-04T08:51:15;95273.75;;;0.99;82.67
22047;BME280;11187;49.412;20.956;2023-04-04T08:53:49;95262.06;;;0.63;81.79
22047;BME280;11187;49.412;20.956;2023-04-04T08:56:43;95279.59;;;0.59;81.72
22047;BME280;11187;49.412;20.956;2023-04-04T08:59:38;95262.69;;;0.53;79.56
22047;BME280;11187;49.412;20.956;2023-04-04T09:02:13;95275.88;;;0.43;82.64
22047;BME280;11187;49.412;20.956;2023-04-04T09:05:01;95282.69;;;0.46;81.69
22047;BME280;11187;49.412;20.956;2023-04-04T09:07:35;95265.94;;;0.87;77.85
22047;BME280;11187;49.412;20.956;2023-04-04T09:10:22;95276.78;;;0.83;81.13
22047;BME280;11187;49.412;20.956;2023-04-04T09:12:56;95281.69;;;1.16;81.63
22047;BME280;11187;49.412;20.956;2023-04-04T09:15:55;95271.56;;;1.15;80.73
22047;BME280;11187;49.412;20.956;2023-04-04T09:18:29;95279.53;;;0.95;80.48
22047;BME280;11187;49.412;20.956;2023-04-04T09:21:18;95300.94;;;0.75;78.11
22047;BME280;11187;49.412;20.956;2023-04-04T09:24:00;95305.03;;;0.70;77.36
22047;BME280;11187;49.412;20.956;2023-04-04T09:26:54;95312.13;;;0.48;78.21
22047;BME280;11187;49.412;20.956;2023-04-04T09:29:48;95298.31;;;0.32;77.60
22047;BME280;11187;49.412;20.956;2023-04-04T09:32:44;95295.81;;;0.32;78.86
22047;BME280;11187;49.412;20.956;2023-04-04T09:35:42;95292.53;;;0.36;80.90
22047;BME280;11187;49.412;20.956;2023-04-04T09:38:16;95295.75;;;0.31;79.99
22047;BME280;11187;49.412;20.956;2023-04-04T09:41:05;95287.97;;;0.22;81.80
22047;BME280;11187;49.412;20.956;2023-04-04T09:43:45;95289.44;;;0.13;82.04
22047;BME280;11187;49.412;20.956;2023-04-04T09:46:39;95296.00;;;0.07;79.15
22047;BME280;11187;49.412;20.956;2023-04-04T09:49:20;95294.31;;;0.06;78.47
22047;BME280;11187;49.412;20.956;2023-04-04T09:52:20;95291.97;;;0.13;79.02
22047;BME280;11187;49.412;20.956;2023-04-04T09:54:55;95289.66;;;0.21;79.44
22047;BME280;11187;49.412;20.956;2023-04-04T09:57:48;95287.94;;;0.20;79.83
22047;BME280;11187;49.412;20.956;2023-04-04T10:00:47;95283.78;;;0.22;78.30
22047;BME280;11187;49.412;20.956;2023-04-04T10:03:22;95284.56;;;0.19;76.88
22047;BME280;11187;49.412;20.956;2023-04-04T10:06:04;95286.31;;;0.22;78.41
22047;BME280;11187;49.412;20.956;2023-04-04T10:08:44;95290.66;;;0.29;79.10
22047;BME280;11187;49.412;20.956;2023-04-04T10:11:29;95286.63;;;0.36;79.39
22047;BME280;11187;49.412;20.956;2023-04-04T10:14:10;95286.72;;;0.39;78.93
22047;BME280;11187;49.412;20.956;2023-04-04T10:16:55;95293.56;;;0.45;77.76
22047;BME280;11187;49.412;20.956;2023-04-04T10:19:36;95298.59;;;0.45;74.96
22047;BME280;11187;49.412;20.956;2023-04-04T10:22:16;95282.38;;;0.33;75.03
22047;BME280;11187;49.412;20.956;2023-04-04T10:24:58;95283.31;;;0.38;75.95
22047;BME280;11187;49.412;20.956;2023-04-04T10:27:39;95286.81;;;0.44;77.21
22047;BME280;11187;49.412;20.956;2023-04-04T10:30:21;95280.25;;;0.50;77.28
22047;BME280;11187;49.412;20.956;2023-04-04T10:33:19;95275.03;;;0.43;75.16
22047;BME280;11187;49.412;20.956;2023-04-04T10:36:10;95276.59;;;0.37;76.91
22047;BME280;11187;49.412;20.956;2023-04-04T10:38:54;95276.59;;;0.37;76.63
22047;BME280;11187;49.412;20.956;2023-04-04T10:41:50;95274.78;;;0.32;76.06
22047;BME280;11187;49.412;20.956;2023-04-04T10:44:35;95283.22;;;0.34;79.14
22047;BME280;11187;49.412;20.956;2023-04-04T10:47:23;95288.47;;;0.41;79.09
22047;BME280;11187;49.412;20.956;2023-04-04T10:49:59;95283.31;;;0.38;77.09
22047;BME280;11187;49.412;20.956;2023-04-04T10:52:57;95280.44;;;0.58;77.81
22047;BME280;11187;49.412;20.956;2023-04-04T10:55:34;95277.38;;;0.71;79.45
22047;BME280;11187;49.412;20.956;2023-04-04T10:58:30;95281.97;;;0.91;76.92
22047;BME280;11187;49.412;20.956;2023-04-04T11:04:29;95271.59;;;1.18;79.29
22047;BME280;11187;49.412;20.956;2023-04-04T11:07:26;95266.81;;;1.30;79.35
22047;BME280;11187;49.412;20.956;2023-04-04T11:10:00;95259.50;;;1.44;78.45
22047;BME280;11187;49.412;20.956;2023-04-04T11:13:02;95250.53;;;1.58;77.24
22047;BME280;11187;49.412;20.956;2023-04-04T11:15:54;95259.13;;;1.70;79.62
22047;BME280;11187;49.412;20.956;2023-04-04T11:18:50;95246.59;;;1.73;76.41
22047;BME280;11187;49.412;20.956;2023-04-04T11:21:44;95242.31;;;1.70;76.15
22047;BME280;11187;49.412;20.956;2023-04-04T11:24:18;95239.41;;;1.49;75.45
22047;BME280;11187;49.412;20.956;2023-04-04T11:27:12;95240.94;;;1.39;75.69
22047;BME280;11187;49.412;20.956;2023-04-04T11:29:49;95239.78;;;1.24;74.48
22047;BME280;11187;49.412;20.956;2023-04-04T11:32:42;95232.25;;;1.26;75.76
22047;BME280;11187;49.412;20.956;2023-04-04T11:35:33;95233.19;;;1.31;76.13
22047;BME280;11187;49.412;20.956;2023-04-04T11:38:21;95229.00;;;1.30;76.93
22047;BME280;11187;49.412;20.956;2023-04-04T11:40:55;95226.38;;;1.25;76.41
22047;BME280;11187;49.412;20.956;2023-04-04T11:43:48;95237.94;;;1.16;75.34
22047;BME280;11187;49.412;20.956;2023-04-04T11:46:22;95227.56;;;1.00;77.36
22047;BME280;11187;49.412;20.956;2023-04-04T11:49:13;95241.06;;;1.04;79.42
22047;BME280;11187;49.412;20.956;2023-04-04T11:51:46;95235.41;;;1.16;77.72
22047;BME280;11187;49.412;20.956;2023-04-04T11:54:43;95239.13;;;1.33;76.06
22047;BME280;11187;49.412;20.956;2023-04-04T11:57:40;95236.22;;;1.59;75.23
22047;BME280;11187;49.412;20.956;2023-04-04T12:00:35;95223.91;;;1.76;76.63
22047;BME280;11187;49.412;20.956;2023-04-04T12:03:29;95233.72;;;1.60;74.64
22047;BME280;11187;49.412;20.956;2023-04-04T12:06:03;95235.16;;;1.46;76.52
22047;BME280;11187;49.412;20.956;2023-04-04T12:08:56;95243.38;;;1.34;77.67
22047;BME280;11187;49.412;20.956;2023-04-04T12:11:50;95233.97;;;1.74;76.82
22047;BME280;11187;49.412;20.956;2023-04-04T12:14:44;95227.22;;;2.23;77.70
22047;BME280;11187;49.412;20.956;2023-04-04T12:17:20;95239.28;;;2.41;74.41
22047;BME280;11187;49.412;20.956;2023-04-04T12:20:14;95234.09;;;2.34;73.38
22047;BME280;11187;49.412;20.956;2023-04-04T12:22:49;95226.38;;;2.24;75.50
22047;BME280;11187;49.412;20.956;2023-04-04T12:25:42;95217.72;;;2.08;74.30
22047;BME280;11187;49.412;20.956;2023-04-04T12:28:16;95222.69;;;2.04;74.80
22047;BME280;11187;49.412;20.956;2023-04-04T12:31:12;95220.94;;;2.00;76.03
22047;BME280;11187;49.412;20.956;2023-04-04T12:33:45;95219.28;;;2.00;75.87
22047;BME280;11187;49.412;20.956;2023-04-04T12:36:39;95221.44;;;1.79;72.45
22047;BME280;11187;49.412;20.956;2023-04-04T12:39:33;95212.91;;;1.71;73.05
22047;BME280;11187;49.412;20.956;2023-04-04T12:42:08;95217.72;;;1.58;75.50
22047;BME280;11187;49.412;20.956;2023-04-04T12:44:56;95222.84;;;1.63;73.99
22047;BME280;11187;49.412;20.956;2023-04-04T12:47:30;95214.47;;;1.65;75.43
22047;BME280;11187;49.412;20.956;2023-04-04T12:50:26;95210.16;;;1.58;73.07
22047;BME280;11187;49.412;20.956;2023-04-04T12:53:24;95210.81;;;1.50;74.41
22047;BME280;11187;49.412;20.956;2023-04-04T12:56:03;95207.09;;;1.29;73.72
22047;BME280;11187;49.412;20.956;2023-04-04T12:59:02;95207.22;;;1.35;75.09
22047;BME280;11187;49.412;20.956;2023-04-04T13:02:00;95200.91;;;1.59;76.81
22047;BME280;11187;49.412;20.956;2023-04-04T13:04:37;95201.13;;;1.71;75.51
22047;BME280;11187;49.412;20.956;2023-04-04T13:07:25;95187.78;;;1.78;75.75
22047;BME280;11187;49.412;20.956;2023-04-04T13:10:03;95196.06;;;1.71;74.73
22047;BME280;11187;49.412;20.956;2023-04-04T13:12:58;95201.00;;;1.65;74.96
22047;BME280;11187;49.412;20.956;2023-04-04T13:15:50;95195.81;;;1.56;75.94
22047;BME280;11187;49.412;20.956;2023-04-04T13:18:42;95192.53;;;1.60;78.48
22047;BME280;11187;49.412;20.956;2023-04-04T13:21:16;95190.13;;;1.67;77.91
22047;BME280;11187;49.412;20.956;2023-04-04T13:24:09;95188.53;;;1.74;77.73
22047;BME280;11187;49.412;20.956;2023-04-04T13:27:03;95190.31;;;1.78;77.15
22047;BME280;11187;49.412;20.956;2023-04-04T13:29:36;95189.41;;;1.76;76.46
22047;BME280;11187;49.412;20.956;2023-04-04T13:32:23;95190.13;;;1.67;74.70
22047;BME280;11187;49.412;20.956;2023-04-04T13:34:56;95174.00;;;1.61;77.52
22047;BME280;11187;49.412;20.956;2023-04-04T13:37:43;95179.63;;;1.44;77.42
22047;BME280;11187;49.412;20.956;2023-04-04T13:40:17;95184.59;;;1.40;78.01
22047;BME280;11187;49.412;20.956;2023-04-04T13:43:04;95186.13;;;1.32;76.73
22047;BME280;11187;49.412;20.956;2023-04-04T13:45:37;95183.50;;;1.27;78.04
22047;BME280;11187;49.412;20.956;2023-04-04T13:48:32;95185.06;;;1.19;78.08
22047;BME280;11187;49.412;20.956;2023-04-04T13:51:08;95186.00;;;1.24;78.62
22047;BME280;11187;49.412;20.956;2023-04-04T13:53:55;95176.91;;;1.32;78.26
22047;BME280;11187;49.412;20.956;2023-04-04T13:56:28;95177.72;;;1.31;79.01
22047;BME280;11187;49.412;20.956;2023-04-04T13:59:22;95175.25;;;1.36;78.97
22047;BME280;11187;49.412;20.956;2023-04-04T14:01:56;95176.16;;;1.38;78.21
22047;BME280;11187;49.412;20.956;2023-04-04T14:04:49;95174.47;;;1.38;78.17
22047;BME280;11187;49.412;20.956;2023-04-04T14:07:43;95173.66;;;1.39;76.76
22047;BME280;11187;49.412;20.956;2023-04-04T14:10:17;95183.72;;;1.36;78.34
22047;BME280;11187;49.412;20.956;2023-04-04T14:13:03;95186.16;;;1.33;78.66
22047;BME280;11187;49.412;20.956;2023-04-04T14:15:36;95188.75;;;1.36;79.49
22047;BME280;11187;49.412;20.956;2023-04-04T14:18:23;95183.78;;;1.42;79.14
22047;BME280;11187;49.412;20.956;2023-04-04T14:20:56;95181.44;;;1.50;79.15
22047;BME280;11187;49.412;20.956;2023-04-04T14:23:43;95187.31;;;1.51;77.70